sensor_id;sensor_type;location;lat;lon;timestamp;P1;durP1;ratioP1;P2;durP2;ratioP2
19830;SDS011;10076;52.008;4.708;2024-02-23T00:00:23;22.30;;;20.70;;
19830;SDS011;10076;52.008;4.708;2024-02-23T00:02:49;23.57;;;21.87;;
19830;SDS011;10076;52.008;4.708;2024-02-23T00:05:14;23.00;;;21.30;;
19830;SDS011;10076;52.008;4.708;2024-02-23T00:07:40;22.30;;;20.77;;
19830;SDS011;10076;52.008;4.708;2024-02-23T00:10:05;22.70;;;21.20;;
19830;SDS011;10076;52.008;4.708;2024-02-23T00:12:31;22.77;;;21.27;;
19830;SDS011;10076;52.008;4.708;2024-02-23T00:14:56;22.50;;;20.90;;
19830;SDS011;10076;52.008;4.708;2024-02-23T00:17:22;22.30;;;20.63;;
19830;SDS011;10076;52.008;4.708;2024-02-23T00:19:48;22.97;;;21.37;;
19830;SDS011;10076;52.008;4.708;2024-02-23T00:22:14;22.47;;;20.97;;
19830;SDS011;10076;52.008;4.708;2024-02-23T00:24:39;22.60;;;21.00;;
19830;SDS011;10076;52.008;4.708;2024-02-23T00:27:05;23.97;;;22.30;;
19830;SDS011;10076;52.008;4.708;2024-02-23T00:29:31;23.20;;;21.40;;
19830;SDS011;10076;52.008;4.708;2024-02-23T00:31:56;23.03;;;21.43;;
19830;SDS011;10076;52.008;4.708;2024-02-23T00:34:22;24.13;;;22.53;;
19830;SDS011;10076;52.008;4.708;2024-02-23T00:36:47;24.83;;;22.40;;
19830;SDS011;10076;52.008;4.708;2024-02-23T00:39:13;22.00;;;20.20;;
19830;SDS011;10076;52.008;4.708;2024-02-23T00:41:39;21.40;;;20.00;;
19830;SDS011;10076;52.008;4.708;2024-02-23T00:44:04;21.10;;;19.70;;
19830;SDS011;10076;52.008;4.708;2024-02-23T00:46:30;21.33;;;19.93;;
19830;SDS011;10076;52.008;4.708;2024-02-23T00:48:55;21.83;;;20.20;;
19830;SDS011;10076;52.008;4.708;2024-02-23T00:51:21;21.43;;;19.77;;
19830;SDS011;10076;52.008;4.708;2024-02-23T00:53:46;21.80;;;20.40;;
19830;SDS011;10076;52.008;4.708;2024-02-23T00:56:12;21.57;;;20.17;;
19830;SDS011;10076;52.008;4.708;2024-02-23T00:58:38;22.67;;;20.97;;
19830;SDS011;10076;52.008;4.708;2024-02-23T01:01:03;20.63;;;19.23;;
19830;SDS011;10076;52.008;4.708;2024-02-23T01:03:28;20.87;;;19.47;;
19830;SDS011;10076;52.008;4.708;2024-02-23T01:05:54;21.40;;;19.47;;
19830;SDS011;10076;52.008;4.708;2024-02-23T01:08:19;20.50;;;19.10;;
19830;SDS011;10076;52.008;4.708;2024-02-23T01:10:44;20.03;;;18.63;;
19830;SDS011;10076;52.008;4.708;2024-02-23T01:13:10;20.53;;;18.70;;
19830;SDS011;10076;52.008;4.708;2024-02-23T01:15:35;20.90;;;19.50;;
19830;SDS011;10076;52.008;4.708;2024-02-23T01:18:00;21.90;;;20.23;;
19830;SDS011;10076;52.008;4.708;2024-02-23T01:20:26;22.37;;;20.60;;
19830;SDS011;10076;52.008;4.708;2024-02-23T01:22:51;21.87;;;20.17;;
19830;SDS011;10076;52.008;4.708;2024-02-23T01:25:16;21.27;;;19.87;;
19830;SDS011;10076;52.008;4.708;2024-02-23T01:27:42;22.17;;;20.67;;
19830;SDS011;10076;52.008;4.708;2024-02-23T01:30:09;22.10;;;20.60;;
19830;SDS011;10076;52.008;4.708;2024-02-23T01:32:35;22.20;;;20.60;;
19830;SDS011;10076;52.008;4.708;2024-02-23T01:35:02;22.17;;;20.67;;
19830;SDS011;10076;52.008;4.708;2024-02-23T01:37:28;22.60;;;21.10;;
19830;SDS011;10076;52.008;4.708;2024-02-23T01:39:53;22.33;;;20.87;;
19830;SDS011;10076;52.008;4.708;2024-02-23T01:42:18;22.67;;;21.17;;
19830;SDS011;10076;52.008;4.708;2024-02-23T01:44:44;23.77;;;21.17;;
19830;SDS011;10076;52.008;4.708;2024-02-23T01:47:10;22.50;;;21.00;;
19830;SDS011;10076;52.008;4.708;2024-02-23T01:49:36;22.60;;;21.10;;
19830;SDS011;10076;52.008;4.708;2024-02-23T01:52:01;21.90;;;20.50;;
19830;SDS011;10076;52.008;4.708;2024-02-23T01:54:28;21.93;;;20.53;;
19830;SDS011;10076;52.008;4.708;2024-02-23T01:56:54;22.13;;;20.73;;
19830;SDS011;10076;52.008;4.708;2024-02-23T01:59:21;21.67;;;20.27;;
19830;SDS011;10076;52.008;4.708;2024-02-23T02:01:48;22.30;;;20.80;;
19830;SDS011;10076;52.008;4.708;2024-02-23T02:04:13;21.93;;;20.53;;
19830;SDS011;10076;52.008;4.708;2024-02-23T02:06:39;24.10;;;22.10;;
19830;SDS011;10076;52.008;4.708;2024-02-23T02:09:04;22.53;;;20.93;;
19830;SDS011;10076;52.008;4.708;2024-02-23T02:11:30;22.43;;;20.93;;
19830;SDS011;10076;52.008;4.708;2024-02-23T02:13:56;21.77;;;20.27;;
19830;SDS011;10076;52.008;4.708;2024-02-23T02:16:21;22.00;;;20.40;;
19830;SDS011;10076;52.008;4.708;2024-02-23T02:18:46;22.07;;;20.47;;
19830;SDS011;10076;52.008;4.708;2024-02-23T02:21:12;22.23;;;20.63;;
19830;SDS011;10076;52.008;4.708;2024-02-23T02:23:37;22.83;;;21.23;;
19830;SDS011;10076;52.008;4.708;2024-02-23T02:26:03;23.47;;;21.57;;
19830;SDS011;10076;52.008;4.708;2024-02-23T02:28:28;23.17;;;21.57;;
19830;SDS011;10076;52.008;4.708;2024-02-23T02:30:54;22.97;;;21.30;;
19830;SDS011;10076;52.008;4.708;2024-02-23T02:33:20;22.07;;;20.47;;
19830;SDS011;10076;52.008;4.708;2024-02-23T02:35:45;22.37;;;20.77;;
19830;SDS011;10076;52.008;4.708;2024-02-23T02:38:11;21.83;;;20.33;;
19830;SDS011;10076;52.008;4.708;2024-02-23T02:40:36;22.23;;;20.70;;
19830;SDS011;10076;52.008;4.708;2024-02-23T02:43:01;21.73;;;20.23;;
19830;SDS011;10076;52.008;4.708;2024-02-23T02:45:27;21.87;;;20.37;;
19830;SDS011;10076;52.008;4.708;2024-02-23T02:47:52;22.73;;;20.37;;
19830;SDS011;10076;52.008;4.708;2024-02-23T02:50:18;21.93;;;20.43;;
19830;SDS011;10076;52.008;4.708;2024-02-23T02:52:43;21.40;;;19.90;;
19830;SDS011;10076;52.008;4.708;2024-02-23T02:55:08;21.47;;;19.97;;
19830;SDS011;10076;52.008;4.708;2024-02-23T02:57:34;22.40;;;20.53;;
19830;SDS011;10076;52.008;4.708;2024-02-23T03:00:01;22.63;;;21.03;;
19830;SDS011;10076;52.008;4.708;2024-02-23T03:02:29;22.63;;;21.03;;
19830;SDS011;10076;52.008;4.708;2024-02-23T03:04:55;22.60;;;21.00;;
19830;SDS011;10076;52.008;4.708;2024-02-23T03:07:20;22.43;;;20.83;;
19830;SDS011;10076;52.008;4.708;2024-02-23T03:09:45;21.43;;;19.93;;
19830;SDS011;10076;52.008;4.708;2024-02-23T03:12:11;23.30;;;21.60;;
19830;SDS011;10076;52.008;4.708;2024-02-23T03:14:36;23.40;;;21.80;;
19830;SDS011;10076;52.008;4.708;2024-02-23T03:17:04;22.87;;;21.27;;
19830;SDS011;10076;52.008;4.708;2024-02-23T03:19:30;23.00;;;21.40;;
19830;SDS011;10076;52.008;4.708;2024-02-23T03:21:55;23.30;;;21.50;;
19830;SDS011;10076;52.008;4.708;2024-02-23T03:24:20;23.83;;;22.13;;
19830;SDS011;10076;52.008;4.708;2024-02-23T03:26:46;23.53;;;21.83;;
19830;SDS011;10076;52.008;4.708;2024-02-23T03:29:11;22.87;;;21.27;;
19830;SDS011;10076;52.008;4.708;2024-02-23T03:31:37;23.10;;;21.50;;
19830;SDS011;10076;52.008;4.708;2024-02-23T03:34:02;23.47;;;21.87;;
19830;SDS011;10076;52.008;4.708;2024-02-23T03:36:28;23.40;;;21.80;;
19830;SDS011;10076;52.008;4.708;2024-02-23T03:38:53;23.57;;;21.87;;
19830;SDS011;10076;52.008;4.708;2024-02-23T03:41:18;23.80;;;22.20;;
19830;SDS011;10076;52.008;4.708;2024-02-23T03:43:44;23.10;;;21.50;;
19830;SDS011;10076;52.008;4.708;2024-02-23T03:46:09;23.03;;;21.43;;
19830;SDS011;10076;52.008;4.708;2024-02-23T03:48:36;23.30;;;21.70;;
19830;SDS011;10076;52.008;4.708;2024-02-23T03:51:02;24.37;;;22.67;;
19830;SDS011;10076;52.008;4.708;2024-02-23T03:53:31;23.60;;;22.00;;
19830;SDS011;10076;52.008;4.708;2024-02-23T03:55:57;24.10;;;22.40;;
19830;SDS011;10076;52.008;4.708;2024-02-23T03:58:22;25.07;;;22.63;;
19830;SDS011;10076;52.008;4.708;2024-02-23T04:00:48;24.03;;;22.13;;
19830;SDS011;10076;52.008;4.708;2024-02-23T04:03:13;24.27;;;22.57;;
19830;SDS011;10076;52.008;4.708;2024-02-23T04:05:39;25.47;;;23.53;;
19830;SDS011;10076;52.008;4.708;2024-02-23T04:08:04;23.80;;;22.10;;
19830;SDS011;10076;52.008;4.708;2024-02-23T04:10:29;25.30;;;23.50;;
19830;SDS011;10076;52.008;4.708;2024-02-23T04:12:55;24.70;;;22.80;;
19830;SDS011;10076;52.008;4.708;2024-02-23T04:15:20;24.23;;;22.53;;
19830;SDS011;10076;52.008;4.708;2024-02-23T04:17:46;24.20;;;22.40;;
19830;SDS011;10076;52.008;4.708;2024-02-23T04:20:11;24.97;;;23.17;;
19830;SDS011;10076;52.008;4.708;2024-02-23T04:22:37;24.40;;;22.30;;
19830;SDS011;10076;52.008;4.708;2024-02-23T04:25:03;23.60;;;21.90;;
19830;SDS011;10076;52.008;4.708;2024-02-23T04:27:30;24.83;;;23.03;;
19830;SDS011;10076;52.008;4.708;2024-02-23T04:29:55;27.30;;;24.67;;
19830;SDS011;10076;52.008;4.708;2024-02-23T04:32:20;24.70;;;22.87;;
19830;SDS011;10076;52.008;4.708;2024-02-23T04:34:45;25.40;;;23.60;;
19830;SDS011;10076;52.008;4.708;2024-02-23T04:37:11;25.10;;;23.30;;
19830;SDS011;10076;52.008;4.708;2024-02-23T04:39:36;26.27;;;24.47;;
19830;SDS011;10076;52.008;4.708;2024-02-23T04:42:03;26.07;;;24.27;;
19830;SDS011;10076;52.008;4.708;2024-02-23T04:44:29;24.90;;;23.13;;
19830;SDS011;10076;52.008;4.708;2024-02-23T04:46:54;26.40;;;24.60;;
19830;SDS011;10076;52.008;4.708;2024-02-23T04:49:20;24.73;;;23.03;;
19830;SDS011;10076;52.008;4.708;2024-02-23T04:51:45;23.53;;;21.83;;
19830;SDS011;10076;52.008;4.708;2024-02-23T04:54:10;24.47;;;22.67;;
19830;SDS011;10076;52.008;4.708;2024-02-23T04:56:35;25.03;;;23.13;;
19830;SDS011;10076;52.008;4.708;2024-02-23T04:59:01;23.53;;;21.83;;
19830;SDS011;10076;52.008;4.708;2024-02-23T05:01:26;24.77;;;22.97;;
19830;SDS011;10076;52.008;4.708;2024-02-23T05:03:51;25.30;;;23.50;;
19830;SDS011;10076;52.008;4.708;2024-02-23T05:06:17;26.13;;;24.33;;
19830;SDS011;10076;52.008;4.708;2024-02-23T05:08:42;26.63;;;24.23;;
19830;SDS011;10076;52.008;4.708;2024-02-23T05:11:07;26.30;;;24.40;;
19830;SDS011;10076;52.008;4.708;2024-02-23T05:13:33;25.43;;;23.63;;
19830;SDS011;10076;52.008;4.708;2024-02-23T05:15:58;26.07;;;24.27;;
19830;SDS011;10076;52.008;4.708;2024-02-23T05:18:23;26.53;;;24.73;;
19830;SDS011;10076;52.008;4.708;2024-02-23T05:20:49;25.97;;;24.17;;
19830;SDS011;10076;52.008;4.708;2024-02-23T05:23:14;27.90;;;25.97;;
19830;SDS011;10076;52.008;4.708;2024-02-23T05:25:43;28.03;;;26.13;;
19830;SDS011;10076;52.008;4.708;2024-02-23T05:28:08;29.13;;;25.10;;
19830;SDS011;10076;52.008;4.708;2024-02-23T05:30:33;26.83;;;24.83;;
19830;SDS011;10076;52.008;4.708;2024-02-23T05:32:59;26.13;;;24.23;;
19830;SDS011;10076;52.008;4.708;2024-02-23T05:35:24;24.70;;;22.90;;
19830;SDS011;10076;52.008;4.708;2024-02-23T05:37:51;24.73;;;23.03;;
19830;SDS011;10076;52.008;4.708;2024-02-23T05:40:16;23.97;;;22.27;;
19830;SDS011;10076;52.008;4.708;2024-02-23T05:42:42;24.73;;;22.93;;
19830;SDS011;10076;52.008;4.708;2024-02-23T05:45:07;24.00;;;22.30;;
19830;SDS011;10076;52.008;4.708;2024-02-23T05:47:39;23.57;;;21.87;;
19830;SDS011;10076;52.008;4.708;2024-02-23T05:50:04;22.57;;;20.97;;
19830;SDS011;10076;52.008;4.708;2024-02-23T05:52:33;26.50;;;22.97;;
19830;SDS011;10076;52.008;4.708;2024-02-23T05:54:59;24.67;;;22.87;;
19830;SDS011;10076;52.008;4.708;2024-02-23T05:57:28;24.30;;;22.50;;
19830;SDS011;10076;52.008;4.708;2024-02-23T05:59:54;23.37;;;21.67;;
19830;SDS011;10076;52.008;4.708;2024-02-23T06:02:20;23.23;;;21.53;;
19830;SDS011;10076;52.008;4.708;2024-02-23T06:04:46;25.40;;;23.60;;
19830;SDS011;10076;52.008;4.708;2024-02-23T06:07:12;24.67;;;22.97;;
19830;SDS011;10076;52.008;4.708;2024-02-23T06:09:38;24.90;;;23.10;;
19830;SDS011;10076;52.008;4.708;2024-02-23T06:12:03;25.30;;;23.60;;
19830;SDS011;10076;52.008;4.708;2024-02-23T06:14:30;24.93;;;23.23;;
19830;SDS011;10076;52.008;4.708;2024-02-23T06:16:57;26.33;;;24.63;;
19830;SDS011;10076;52.008;4.708;2024-02-23T06:19:23;27.40;;;25.50;;
19830;SDS011;10076;52.008;4.708;2024-02-23T06:21:48;24.33;;;22.43;;
19830;SDS011;10076;52.008;4.708;2024-02-23T06:24:14;30.00;;;28.10;;
19830;SDS011;10076;52.008;4.708;2024-02-23T06:26:39;30.30;;;28.40;;
19830;SDS011;10076;52.008;4.708;2024-02-23T06:29:05;31.50;;;29.60;;
19830;SDS011;10076;52.008;4.708;2024-02-23T06:31:31;34.13;;;32.10;;
19830;SDS011;10076;52.008;4.708;2024-02-23T06:33:58;33.47;;;31.47;;
19830;SDS011;10076;52.008;4.708;2024-02-23T06:36:24;32.67;;;30.57;;
19830;SDS011;10076;52.008;4.708;2024-02-23T06:38:49;33.47;;;31.27;;
19830;SDS011;10076;52.008;4.708;2024-02-23T06:41:15;35.60;;;33.27;;
19830;SDS011;10076;52.008;4.708;2024-02-23T06:43:40;33.27;;;31.27;;
19830;SDS011;10076;52.008;4.708;2024-02-23T06:46:06;31.57;;;29.57;;
19830;SDS011;10076;52.008;4.708;2024-02-23T06:48:32;30.50;;;28.23;;
19830;SDS011;10076;52.008;4.708;2024-02-23T06:50:58;30.60;;;28.70;;
19830;SDS011;10076;52.008;4.708;2024-02-23T06:53:23;28.70;;;26.70;;
19830;SDS011;10076;52.008;4.708;2024-02-23T06:55:48;26.83;;;25.13;;
19830;SDS011;10076;52.008;4.708;2024-02-23T06:58:13;28.37;;;26.57;;
19830;SDS011;10076;52.008;4.708;2024-02-23T07:00:41;27.00;;;25.30;;
19830;SDS011;10076;52.008;4.708;2024-02-23T07:03:06;27.37;;;25.37;;
19830;SDS011;10076;52.008;4.708;2024-02-23T07:05:32;27.33;;;25.63;;
19830;SDS011;10076;52.008;4.708;2024-02-23T07:07:57;27.10;;;25.20;;
19830;SDS011;10076;52.008;4.708;2024-02-23T07:10:22;28.57;;;26.50;;
19830;SDS011;10076;52.008;4.708;2024-02-23T07:12:50;28.17;;;25.83;;
19830;SDS011;10076;52.008;4.708;2024-02-23T07:15:18;27.43;;;25.73;;
19830;SDS011;10076;52.008;4.708;2024-02-23T07:17:44;25.87;;;24.27;;
19830;SDS011;10076;52.008;4.708;2024-02-23T07:20:10;27.33;;;25.63;;
19830;SDS011;10076;52.008;4.708;2024-02-23T07:22:35;28.33;;;26.53;;
19830;SDS011;10076;52.008;4.708;2024-02-23T07:25:01;27.50;;;25.80;;
19830;SDS011;10076;52.008;4.708;2024-02-23T07:27:28;26.87;;;25.17;;
19830;SDS011;10076;52.008;4.708;2024-02-23T07:29:54;25.47;;;23.87;;
19830;SDS011;10076;52.008;4.708;2024-02-23T07:32:19;26.13;;;24.43;;
19830;SDS011;10076;52.008;4.708;2024-02-23T07:34:45;29.13;;;26.77;;
19830;SDS011;10076;52.008;4.708;2024-02-23T07:37:10;27.20;;;25.30;;
19830;SDS011;10076;52.008;4.708;2024-02-23T07:39:35;26.10;;;24.50;;
19830;SDS011;10076;52.008;4.708;2024-02-23T07:42:00;26.50;;;24.70;;
19830;SDS011;10076;52.008;4.708;2024-02-23T07:44:27;24.90;;;23.10;;
19830;SDS011;10076;52.008;4.708;2024-02-23T07:46:52;24.77;;;23.07;;
19830;SDS011;10076;52.008;4.708;2024-02-23T07:49:19;25.87;;;23.90;;
19830;SDS011;10076;52.008;4.708;2024-02-23T07:51:45;25.27;;;23.17;;
19830;SDS011;10076;52.008;4.708;2024-02-23T07:54:10;31.13;;;23.43;;
19830;SDS011;10076;52.008;4.708;2024-02-23T07:56:36;26.20;;;23.93;;
19830;SDS011;10076;52.008;4.708;2024-02-23T07:59:01;35.83;;;25.57;;
19830;SDS011;10076;52.008;4.708;2024-02-23T08:01:28;26.03;;;24.10;;
19830;SDS011;10076;52.008;4.708;2024-02-23T08:03:53;26.00;;;24.10;;
19830;SDS011;10076;52.008;4.708;2024-02-23T08:06:19;24.30;;;22.50;;
19830;SDS011;10076;52.008;4.708;2024-02-23T08:08:44;25.53;;;23.63;;
19830;SDS011;10076;52.008;4.708;2024-02-23T08:11:10;26.60;;;24.60;;
19830;SDS011;10076;52.008;4.708;2024-02-23T08:13:36;26.00;;;24.03;;
19830;SDS011;10076;52.008;4.708;2024-02-23T08:16:01;26.97;;;24.97;;
19830;SDS011;10076;52.008;4.708;2024-02-23T08:18:27;28.30;;;26.30;;
19830;SDS011;10076;52.008;4.708;2024-02-23T08:20:52;27.60;;;25.47;;
19830;SDS011;10076;52.008;4.708;2024-02-23T08:23:18;27.27;;;25.37;;
19830;SDS011;10076;52.008;4.708;2024-02-23T08:25:47;30.07;;;27.87;;
19830;SDS011;10076;52.008;4.708;2024-02-23T08:28:13;33.13;;;28.80;;
19830;SDS011;10076;52.008;4.708;2024-02-23T08:30:38;30.47;;;28.27;;
19830;SDS011;10076;52.008;4.708;2024-02-23T08:33:03;30.73;;;28.53;;
19830;SDS011;10076;52.008;4.708;2024-02-23T08:35:29;32.53;;;29.53;;
19830;SDS011;10076;52.008;4.708;2024-02-23T08:37:54;32.27;;;30.07;;
19830;SDS011;10076;52.008;4.708;2024-02-23T08:40:19;31.97;;;29.77;;
19830;SDS011;10076;52.008;4.708;2024-02-23T08:42:45;31.27;;;29.07;;
19830;SDS011;10076;52.008;4.708;2024-02-23T08:45:12;29.87;;;27.77;;
19830;SDS011;10076;52.008;4.708;2024-02-23T08:47:38;34.37;;;30.10;;
19830;SDS011;10076;52.008;4.708;2024-02-23T08:50:04;33.20;;;30.90;;
19830;SDS011;10076;52.008;4.708;2024-02-23T08:52:30;32.47;;;29.87;;
19830;SDS011;10076;52.008;4.708;2024-02-23T08:54:55;30.07;;;27.97;;
19830;SDS011;10076;52.008;4.708;2024-02-23T08:57:20;31.03;;;28.83;;
19830;SDS011;10076;52.008;4.708;2024-02-23T08:59:47;29.93;;;27.73;;
19830;SDS011;10076;52.008;4.708;2024-02-23T09:02:13;28.63;;;26.63;;
19830;SDS011;10076;52.008;4.708;2024-02-23T09:04:39;27.77;;;25.80;;
19830;SDS011;10076;52.008;4.708;2024-02-23T09:07:07;28.63;;;26.63;;
19830;SDS011;10076;52.008;4.708;2024-02-23T09:09:32;28.27;;;26.27;;
19830;SDS011;10076;52.008;4.708;2024-02-23T09:11:57;29.53;;;27.30;;
19830;SDS011;10076;52.008;4.708;2024-02-23T09:14:23;27.87;;;25.87;;
19830;SDS011;10076;52.008;4.708;2024-02-23T09:16:50;27.57;;;25.57;;
19830;SDS011;10076;52.008;4.708;2024-02-23T09:19:16;26.87;;;24.87;;
19830;SDS011;10076;52.008;4.708;2024-02-23T09:21:42;27.33;;;25.23;;
19830;SDS011;10076;52.008;4.708;2024-02-23T09:24:07;26.50;;;23.20;;
19830;SDS011;10076;52.008;4.708;2024-02-23T09:26:33;26.50;;;24.13;;
19830;SDS011;10076;52.008;4.708;2024-02-23T09:28:58;26.30;;;24.13;;
19830;SDS011;10076;52.008;4.708;2024-02-23T09:31:23;26.43;;;24.43;;
19830;SDS011;10076;52.008;4.708;2024-02-23T09:33:49;25.43;;;23.33;;
19830;SDS011;10076;52.008;4.708;2024-02-23T09:36:16;25.27;;;23.23;;
19830;SDS011;10076;52.008;4.708;2024-02-23T09:38:42;25.30;;;23.30;;
19830;SDS011;10076;52.008;4.708;2024-02-23T09:41:10;25.47;;;23.40;;
19830;SDS011;10076;52.008;4.708;2024-02-23T09:43:41;27.27;;;25.17;;
19830;SDS011;10076;52.008;4.708;2024-02-23T09:46:07;24.37;;;22.47;;
19830;SDS011;10076;52.008;4.708;2024-02-23T09:48:33;25.70;;;23.70;;
19830;SDS011;10076;52.008;4.708;2024-02-23T09:51:00;25.73;;;23.73;;
19830;SDS011;10076;52.008;4.708;2024-02-23T09:53:26;25.57;;;23.47;;
19830;SDS011;10076;52.008;4.708;2024-02-23T09:55:51;24.63;;;22.73;;
19830;SDS011;10076;52.008;4.708;2024-02-23T09:58:18;24.43;;;22.53;;
19830;SDS011;10076;52.008;4.708;2024-02-23T10:00:45;23.93;;;22.03;;
19830;SDS011;10076;52.008;4.708;2024-02-23T10:03:11;23.63;;;21.73;;
19830;SDS011;10076;52.008;4.708;2024-02-23T10:05:36;23.67;;;21.77;;
19830;SDS011;10076;52.008;4.708;2024-02-23T10:08:03;24.47;;;22.57;;
19830;SDS011;10076;52.008;4.708;2024-02-23T10:10:37;24.93;;;23.03;;
19830;SDS011;10076;52.008;4.708;2024-02-23T10:13:03;24.90;;;22.97;;
19830;SDS011;10076;52.008;4.708;2024-02-23T10:15:31;24.23;;;22.40;;
19830;SDS011;10076;52.008;4.708;2024-02-23T10:17:56;24.10;;;22.40;;
19830;SDS011;10076;52.008;4.708;2024-02-23T10:20:22;22.73;;;21.13;;
19830;SDS011;10076;52.008;4.708;2024-02-23T10:22:47;24.23;;;22.57;;
19830;SDS011;10076;52.008;4.708;2024-02-23T10:25:13;23.03;;;21.43;;
19830;SDS011;10076;52.008;4.708;2024-02-23T10:27:40;23.53;;;21.93;;
19830;SDS011;10076;52.008;4.708;2024-02-23T10:30:07;24.83;;;22.57;;
19830;SDS011;10076;52.008;4.708;2024-02-23T10:32:36;23.50;;;21.80;;
19830;SDS011;10076;52.008;4.708;2024-02-23T10:35:08;23.80;;;22.20;;
19830;SDS011;10076;52.008;4.708;2024-02-23T10:37:38;22.70;;;21.20;;
19830;SDS011;10076;52.008;4.708;2024-02-23T10:40:03;23.17;;;21.47;;
19830;SDS011;10076;52.008;4.708;2024-02-23T10:42:34;24.07;;;22.47;;
19830;SDS011;10076;52.008;4.708;2024-02-23T10:45:02;23.10;;;21.50;;
19830;SDS011;10076;52.008;4.708;2024-02-23T10:47:29;24.23;;;22.33;;
19830;SDS011;10076;52.008;4.708;2024-02-23T10:49:55;24.77;;;22.43;;
19830;SDS011;10076;52.008;4.708;2024-02-23T10:52:25;23.20;;;21.60;;
19830;SDS011;10076;52.008;4.708;2024-02-23T10:54:51;24.63;;;23.03;;
19830;SDS011;10076;52.008;4.708;2024-02-23T10:57:18;24.50;;;22.80;;
19830;SDS011;10076;52.008;4.708;2024-02-23T10:59:46;25.33;;;23.43;;
19830;SDS011;10076;52.008;4.708;2024-02-23T11:02:12;24.93;;;22.97;;
19830;SDS011;10076;52.008;4.708;2024-02-23T11:04:42;23.33;;;21.73;;
19830;SDS011;10076;52.008;4.708;2024-02-23T11:07:13;25.43;;;23.63;;
19830;SDS011;10076;52.008;4.708;2024-02-23T11:09:39;24.33;;;22.63;;
19830;SDS011;10076;52.008;4.708;2024-02-23T11:12:05;24.27;;;22.63;;
19830;SDS011;10076;52.008;4.708;2024-02-23T11:14:32;23.53;;;22.03;;
19830;SDS011;10076;52.008;4.708;2024-02-23T11:16:59;25.17;;;23.57;;
19830;SDS011;10076;52.008;4.708;2024-02-23T11:19:32;27.07;;;25.43;;
19830;SDS011;10076;52.008;4.708;2024-02-23T11:21:59;26.60;;;25.00;;
19830;SDS011;10076;52.008;4.708;2024-02-23T11:24:25;26.63;;;24.90;;
19830;SDS011;10076;52.008;4.708;2024-02-23T11:27:00;26.17;;;24.47;;
19830;SDS011;10076;52.008;4.708;2024-02-23T11:29:33;25.73;;;24.13;;
19830;SDS011;10076;52.008;4.708;2024-02-23T11:32:00;26.20;;;24.43;;
19830;SDS011;10076;52.008;4.708;2024-02-23T11:34:27;25.33;;;23.70;;
19830;SDS011;10076;52.008;4.708;2024-02-23T11:36:53;25.60;;;24.00;;
19830;SDS011;10076;52.008;4.708;2024-02-23T11:39:19;25.37;;;23.77;;
19830;SDS011;10076;52.008;4.708;2024-02-23T11:41:45;25.17;;;23.60;;
19830;SDS011;10076;52.008;4.708;2024-02-23T11:44:13;26.27;;;24.57;;
19830;SDS011;10076;52.008;4.708;2024-02-23T11:46:39;25.17;;;23.43;;
19830;SDS011;10076;52.008;4.708;2024-02-23T11:49:04;25.90;;;24.30;;
19830;SDS011;10076;52.008;4.708;2024-02-23T11:51:29;26.00;;;24.30;;
19830;SDS011;10076;52.008;4.708;2024-02-23T11:53:56;23.83;;;22.10;;
19830;SDS011;10076;52.008;4.708;2024-02-23T11:56:23;24.13;;;22.53;;
19830;SDS011;10076;52.008;4.708;2024-02-23T11:58:49;22.10;;;20.60;;
19830;SDS011;10076;52.008;4.708;2024-02-23T12:01:14;23.97;;;22.47;;
19830;SDS011;10076;52.008;4.708;2024-02-23T12:03:39;22.87;;;21.37;;
19830;SDS011;10076;52.008;4.708;2024-02-23T12:06:06;23.93;;;22.33;;
19830;SDS011;10076;52.008;4.708;2024-02-23T12:08:32;23.43;;;21.93;;
19830;SDS011;10076;52.008;4.708;2024-02-23T12:11:03;24.17;;;22.67;;
19830;SDS011;10076;52.008;4.708;2024-02-23T12:13:29;22.93;;;21.53;;
19830;SDS011;10076;52.008;4.708;2024-02-23T12:15:54;22.83;;;21.43;;
19830;SDS011;10076;52.008;4.708;2024-02-23T12:18:23;22.73;;;21.33;;
19830;SDS011;10076;52.008;4.708;2024-02-23T12:20:54;23.57;;;22.07;;
19830;SDS011;10076;52.008;4.708;2024-02-23T12:23:24;24.23;;;22.50;;
19830;SDS011;10076;52.008;4.708;2024-02-23T12:25:58;21.30;;;19.90;;
19830;SDS011;10076;52.008;4.708;2024-02-23T12:28:25;20.27;;;18.97;;
19830;SDS011;10076;52.008;4.708;2024-02-23T12:31:00;20.53;;;19.00;;
19830;SDS011;10076;52.008;4.708;2024-02-23T12:33:27;20.30;;;19.00;;
19830;SDS011;10076;52.008;4.708;2024-02-23T12:35:54;20.10;;;18.80;;
19830;SDS011;10076;52.008;4.708;2024-02-23T12:38:20;21.40;;;20.10;;
19830;SDS011;10076;52.008;4.708;2024-02-23T12:40:46;19.95;;;18.65;;
19830;SDS011;10076;52.008;4.708;2024-02-23T12:43:11;20.35;;;18.98;;
19830;SDS011;10076;52.008;4.708;2024-02-23T12:45:36;18.92;;;17.73;;
19830;SDS011;10076;52.008;4.708;2024-02-23T12:48:01;18.05;;;16.70;;
19830;SDS011;10076;52.008;4.708;2024-02-23T12:50:29;17.90;;;16.80;;
19830;SDS011;10076;52.008;4.708;2024-02-23T12:52:56;17.73;;;16.63;;
19830;SDS011;10076;52.008;4.708;2024-02-23T12:55:21;18.27;;;17.17;;
19830;SDS011;10076;52.008;4.708;2024-02-23T12:57:46;19.52;;;18.40;;
19830;SDS011;10076;52.008;4.708;2024-02-23T13:00:12;18.95;;;17.85;;
19830;SDS011;10076;52.008;4.708;2024-02-23T13:02:38;19.03;;;17.67;;
19830;SDS011;10076;52.008;4.708;2024-02-23T13:05:03;17.60;;;16.60;;
19830;SDS011;10076;52.008;4.708;2024-02-23T13:07:28;18.20;;;17.10;;
19830;SDS011;10076;52.008;4.708;2024-02-23T13:09:54;18.33;;;17.23;;
19830;SDS011;10076;52.008;4.708;2024-02-23T13:12:19;19.83;;;18.53;;
19830;SDS011;10076;52.008;4.708;2024-02-23T13:14:44;20.03;;;18.83;;
19830;SDS011;10076;52.008;4.708;2024-02-23T13:17:10;19.60;;;18.30;;
19830;SDS011;10076;52.008;4.708;2024-02-23T13:19:35;17.90;;;16.90;;
19830;SDS011;10076;52.008;4.708;2024-02-23T13:22:00;19.70;;;18.50;;
19830;SDS011;10076;52.008;4.708;2024-02-23T13:24:26;19.20;;;18.10;;
19830;SDS011;10076;52.008;4.708;2024-02-23T13:26:51;20.57;;;19.37;;
19830;SDS011;10076;52.008;4.708;2024-02-23T13:29:17;20.27;;;19.17;;
19830;SDS011;10076;52.008;4.708;2024-02-23T13:31:42;19.90;;;18.80;;
19830;SDS011;10076;52.008;4.708;2024-02-23T13:34:08;18.80;;;17.70;;
19830;SDS011;10076;52.008;4.708;2024-02-23T13:36:34;19.10;;;18.00;;
19830;SDS011;10076;52.008;4.708;2024-02-23T13:38:59;19.27;;;18.17;;
19830;SDS011;10076;52.008;4.708;2024-02-23T13:41:25;18.87;;;17.73;;
19830;SDS011;10076;52.008;4.708;2024-02-23T13:43:50;19.77;;;18.67;;
19830;SDS011;10076;52.008;4.708;2024-02-23T13:46:15;18.53;;;17.53;;
19830;SDS011;10076;52.008;4.708;2024-02-23T13:48:41;20.43;;;19.17;;
19830;SDS011;10076;52.008;4.708;2024-02-23T13:51:06;20.43;;;19.23;;
19830;SDS011;10076;52.008;4.708;2024-02-23T13:53:31;19.60;;;18.50;;
19830;SDS011;10076;52.008;4.708;2024-02-23T13:55:58;20.20;;;19.00;;
19830;SDS011;10076;52.008;4.708;2024-02-23T13:58:24;21.17;;;19.97;;
19830;SDS011;10076;52.008;4.708;2024-02-23T14:00:49;20.67;;;19.47;;
19830;SDS011;10076;52.008;4.708;2024-02-23T14:03:16;22.20;;;20.90;;
19830;SDS011;10076;52.008;4.708;2024-02-23T14:05:45;21.10;;;19.87;;
19830;SDS011;10076;52.008;4.708;2024-02-23T14:08:12;21.17;;;19.97;;
19830;SDS011;10076;52.008;4.708;2024-02-23T14:10:37;21.17;;;19.97;;
19830;SDS011;10076;52.008;4.708;2024-02-23T14:13:02;21.47;;;20.17;;